Time;durP1;ratioP1;P1;durP2;ratioP2;P2;SDS_P1;SDS_P2;PMS_P1;PMS_P2;Temp;Humidity;BMP_temperature;BMP_pressure;BME280_temperature;BME280_humidity;BME280_pressure;Samples;Min_cycle;Max_cycle;Signal;HPM_P1;HPM_P2
2022/09/22 00:00:22;;;;;;;7.43;6.83;;;;;;;21.25;38.32;95241.56;6162213;28;103412;-78
2022/09/22 00:03:25;;;;;;;7.70;7.13;;;;;;;21.30;38.89;95238.81;6160325;28;103948;-79
2022/09/22 00:06:31;;;;;;;7.70;7.10;;;;;;;21.28;38.96;95239.09;6161101;28;104238;-80
2022/09/22 00:09:35;;;;;;;7.37;6.87;;;;;;;21.28;38.69;95233.78;6163223;28;103223;-81
2022/09/22 00:12:39;;;;;;;7.80;7.20;;;;;;;21.25;38.77;95242.38;6163691;28;102984;-80
2022/09/22 00:15:46;;;;;;;8.13;6.60;;;;;;;21.21;38.65;95236.06;6156565;28;103736;-79
2022/09/22 00:18:50;;;;;;;6.87;6.30;;;;;;;21.24;38.81;95232.81;6163448;28;104066;-80
2022/09/22 00:21:53;;;;;;;6.93;6.43;;;;;;;21.21;38.67;95228.06;6163888;28;103715;-80
2022/09/22 00:24:58;;;;;;;8.03;7.43;;;;;;;21.16;38.54;95225.50;6163346;28;102963;-82
2022/09/22 00:28:02;;;;;;;7.17;6.60;;;;;;;21.19;38.50;95236.34;6156447;28;103376;-79
2022/09/22 00:31:07;;;;;;;6.57;6.10;;;;;;;21.16;38.77;95238.78;6162575;28;103423;-80
2022/09/22 00:34:16;;;;;;;6.83;6.33;;;;;;;21.18;38.74;95234.00;6163614;28;103110;-80
2022/09/22 00:37:19;;;;;;;6.93;6.43;;;;;;;21.19;38.36;95231.03;6157887;28;103775;-81
2022/09/22 00:40:24;;;;;;;6.83;6.33;;;;;;;21.15;39.01;95234.56;6159186;28;103042;-80
2022/09/22 00:43:29;;;;;;;6.93;6.43;;;;;;;21.16;38.38;95234.25;6163132;28;105313;-80
2022/09/22 00:46:33;;;;;;;6.60;6.10;;;;;;;21.12;38.52;95235.94;6163854;28;102890;-81
2022/09/22 00:49:44;;;;;;;6.57;6.07;;;;;;;21.14;38.54;95236.44;6167496;28;103549;-80
2022/09/22 00:52:51;;;;;;;6.00;5.60;;;;;;;21.17;38.57;95235.06;6163157;28;106290;-80
2022/09/22 00:55:59;;;;;;;6.10;5.70;;;;;;;21.17;38.60;95240.38;6162535;28;103245;-80
2022/09/22 00:59:06;;;;;;;5.60;5.20;;;;;;;21.14;38.32;95235.66;6163204;28;106317;-80
2022/09/22 01:02:10;;;;;;;5.57;5.17;;;;;;;21.12;38.52;95229.84;6163780;28;103287;-80
2022/09/22 01:05:14;;;;;;;5.97;5.50;;;;;;;21.12;38.59;95233.28;6179128;28;103594;-80
2022/09/22 01:08:20;;;;;;;5.77;5.37;;;;;;;21.10;38.61;95243.44;6162154;28;103346;-80
2022/09/22 01:11:26;;;;;;;6.30;5.80;;;;;;;21.10;38.29;95226.69;6166562;28;103117;-79
2022/09/22 01:14:45;;;;;;;6.70;6.20;;;;;;;21.06;38.32;95229.16;6165779;28;102731;-79
2022/09/22 01:18:02;;;;;;;6.03;5.63;;;;;;;21.10;38.42;95232.78;6168229;28;106228;-80
2022/09/22 01:21:22;;;;;;;5.57;5.17;;;;;;;21.08;38.14;95226.97;6166791;28;103506;-80
2022/09/22 01:25:00;;;;;;;5.53;5.13;;;;;;;21.10;38.28;95232.00;6160766;28;104227;-79
2022/09/22 01:28:38;;;;;;;5.47;5.07;;;;;;;21.10;38.34;95226.69;6154103;28;106017;-80
2022/09/22 01:31:52;;;;;;;5.57;5.17;;;;;;;21.09;38.47;95230.44;6159750;28;103125;-80
2022/09/22 01:35:04;;;;;;;5.70;5.20;;;;;;;21.08;38.20;95226.97;6160455;28;104880;-81
2022/09/22 01:38:13;;;;;;;5.20;4.83;;;;;;;21.02;38.39;95224.69;6166525;28;104518;-80
2022/09/22 01:41:21;;;;;;;5.40;5.00;;;;;;;21.06;38.20;95223.81;6166801;28;104013;-79
2022/09/22 01:44:32;;;;;;;5.90;5.50;;;;;;;21.03;38.21;95218.28;6166634;28;104049;-80
2022/09/22 01:47:42;;;;;;;5.67;5.27;;;;;;;21.04;38.28;95225.97;6159919;28;103808;-79
2022/09/22 01:50:50;;;;;;;6.07;5.57;;;;;;;21.03;38.21;95220.94;6166484;28;103627;-79
2022/09/22 01:53:59;;;;;;;5.23;4.73;;;;;;;21.02;38.07;95219.38;6164812;28;103172;-80
2022/09/22 01:57:10;;;;;;;4.57;4.27;;;;;;;21.03;38.12;95220.94;6164683;28;104100;-76
2022/09/22 02:00:13;;;;;;;5.00;4.70;;;;;;;20.99;38.08;95217.25;6164059;28;104226;-77
2022/09/22 02:03:23;;;;;;;5.10;4.70;;;;;;;21.00;38.07;95218.84;6168979;28;102986;-76
2022/09/22 02:06:32;;;;;;;5.50;5.10;;;;;;;20.98;38.37;95218.34;6166558;28;103120;-76
2022/09/22 02:09:39;;;;;;;5.10;4.70;;;;;;;20.98;38.17;95226.34;6160168;28;105009;-77
2022/09/22 02:12:43;;;;;;;4.60;4.23;;;;;;;20.94;37.90;95231.47;6167069;28;102573;-76
2022/09/22 02:16:01;;;;;;;5.57;5.17;;;;;;;20.95;37.99;95224.25;6165719;28;103276;-75
2022/09/22 02:19:10;;;;;;;5.23;4.83;;;;;;;20.92;38.46;95221.13;6165964;28;103566;-76
2022/09/22 02:22:15;;;;;;;5.67;5.27;;;;;;;20.96;38.18;95220.53;6158992;28;105182;-77
2022/09/22 02:25:19;;;;;;;5.13;4.73;;;;;;;20.96;38.26;95225.84;6165533;28;103816;-75
2022/09/22 02:28:25;;;;;;;4.90;4.60;;;;;;;20.93;38.40;95227.22;6165660;28;103083;-76
2022/09/22 02:31:32;;;;;;;4.87;4.47;;;;;;;20.91;38.46;95219.53;6162633;28;103785;-75
2022/09/22 02:34:37;;;;;;;5.60;5.20;;;;;;;20.92;38.45;95228.31;6162676;28;103767;-75
2022/09/22 02:37:49;;;;;;;5.53;5.13;;;;;;;20.92;38.25;95226.44;6165224;28;103264;-76
2022/09/22 02:41:01;;;;;;;5.20;4.80;;;;;;;20.92;38.00;95226.44;6165794;28;105320;-75
2022/09/22 02:44:09;;;;;;;5.47;5.07;;;;;;;20.88;37.85;95228.09;6158887;28;102980;-75
2022/09/22 02:47:15;;;;;;;5.40;4.97;;;;;;;20.88;38.03;95236.09;6165773;28;103010;-76
2022/09/22 02:50:22;;;;;;;5.37;4.97;;;;;;;20.86;38.32;95227.63;6144594;28;103924;-76
2022/09/22 02:53:25;;;;;;;6.27;5.77;;;;;;;20.86;38.13;95232.94;6141400;28;107211;-76
2022/09/22 02:56:29;;;;;;;5.80;5.30;;;;;;;20.86;38.45;95237.47;6156820;28;103599;-75
2022/09/22 02:59:32;;;;;;;6.03;5.63;;;;;;;20.84;38.21;95240.41;6165405;28;106344;-77
2022/09/22 03:02:35;;;;;;;5.90;5.40;;;;;;;20.85;38.17;95235.88;6165470;28;106101;-76
2022/09/22 03:05:40;;;;;;;6.70;6.20;;;;;;;20.88;38.41;95241.41;6161209;28;104240;-77
2022/09/22 03:08:43;;;;;;;6.67;5.93;;;;;;;20.88;38.19;95237.97;6160502;28;103855;-76
2022/09/22 03:11:46;;;;;;;5.37;4.97;;;;;;;20.87;38.09;95233.72;6164270;28;103210;-75
2022/09/22 03:14:49;;;;;;;6.70;6.23;;;;;;;20.86;38.13;95238.25;6164565;28;104230;-76
2022/09/22 03:17:53;;;;;;;6.60;6.10;;;;;;;20.85;38.45;95231.34;6158360;28;105181;-76
2022/09/22 03:20:57;;;;;;;6.50;6.00;;;;;;;20.85;38.26;95234.00;6164387;28;104548;-76
2022/09/22 03:24:01;;;;;;;6.80;6.30;;;;;;;20.85;38.14;95231.34;6164445;28;106793;-76
2022/09/22 03:27:05;;;;;;;6.00;5.60;;;;;;;20.82;38.14;95231.13;6164712;28;105075;-78
2022/09/22 03:30:11;;;;;;;6.37;5.87;;;;;;;20.82;38.47;95229.25;6159083;28;103192;-77
2022/09/22 03:33:15;;;;;;;6.37;5.90;;;;;;;20.83;38.19;95233.50;6164649;28;103366;-76
2022/09/22 03:36:20;;;;;;;6.37;5.97;;;;;;;20.79;38.03;95221.88;6163932;28;103758;-77
2022/09/22 03:39:24;;;;;;;6.63;6.10;;;;;;;20.82;38.36;95233.78;6163687;28;104074;-78
2022/09/22 03:42:27;;;;;;;6.70;6.20;;;;;;;20.79;38.17;95235.16;6159536;28;106075;-78
2022/09/22 03:45:31;;;;;;;6.60;6.00;;;;;;;20.80;38.14;95228.75;6164689;28;105291;-77
2022/09/22 03:48:34;;;;;;;6.30;5.80;;;;;;;20.79;38.11;95235.16;6164862;28;103644;-77
2022/09/22 03:51:39;;;;;;;5.90;5.50;;;;;;;20.72;38.28;95229.44;6157672;28;103460;-77
2022/09/22 03:54:42;;;;;;;6.07;5.63;;;;;;;20.79;38.25;95243.16;6163250;28;103792;-77
2022/09/22 03:57:46;;;;;;;6.40;5.90;;;;;;;20.77;38.25;95239.19;6163937;28;103016;-78
2022/09/22 04:00:49;;;;;;;5.67;5.23;;;;;;;20.80;38.28;95234.09;6164016;28;103232;-77
2022/09/22 04:03:52;;;;;;;5.80;5.40;;;;;;;20.78;38.23;95233.59;6157560;28;104906;-76
2022/09/22 04:06:57;;;;;;;5.77;5.33;;;;;;;20.79;38.25;95243.16;6164162;28;107319;-78
2022/09/22 04:10:08;;;;;;;5.30;5.00;;;;;;;20.78;38.05;95238.91;6163198;28;104871;-77
2022/09/22 04:13:11;;;;;;;6.50;6.00;;;;;;;20.71;37.88;95235.84;6163907;28;104521;-77
2022/09/22 04:16:15;;;;;;;5.50;5.10;;;;;;;20.77;38.01;95247.97;6157285;28;103016;-77
2022/09/22 04:19:18;;;;;;;5.20;4.90;;;;;;;20.77;38.07;95242.66;6163159;28;103348;-78
2022/09/22 04:22:23;;;;;;;5.23;4.80;;;;;;;20.75;38.34;95241.38;6158379;28;104070;-77
2022/09/22 04:25:26;;;;;;;5.50;5.10;;;;;;;20.78;38.22;95246.88;6160788;28;104469;-78
2022/09/22 04:28:30;;;;;;;5.43;5.03;;;;;;;20.77;38.40;95245.31;6160625;28;104811;-77
2022/09/22 04:31:33;;;;;;;6.00;5.50;;;;;;;20.74;38.46;95245.13;6164297;28;103522;-76
2022/09/22 04:34:37;;;;;;;5.90;5.40;;;;;;;20.71;38.26;95243.81;6162974;28;102901;-76
2022/09/22 04:37:42;;;;;;;4.90;4.60;;;;;;;20.74;38.12;95245.91;6157283;28;103278;-77
2022/09/22 04:40:45;;;;;;;4.67;4.33;;;;;;;20.77;38.29;95244.53;6162390;28;106614;-77
2022/09/22 04:43:49;;;;;;;5.40;5.00;;;;;;;20.80;38.17;95250.03;6163950;28;103276;-77
2022/09/22 04:46:52;;;;;;;5.50;5.10;;;;;;;20.82;38.10;95244.44;6165718;28;105406;-78
2022/09/22 04:49:55;;;;;;;5.40;5.00;;;;;;;20.85;38.22;95249.97;6161337;28;103683;-76
2022/09/22 04:53:00;;;;;;;5.33;4.93;;;;;;;20.86;38.43;95243.56;6167189;28;103589;-79
2022/09/22 04:56:06;;;;;;;5.27;4.87;;;;;;;20.87;38.31;95247.81;6166308;28;102855;-77
2022/09/22 04:59:10;;;;;;;7.57;4.90;;;;;;;20.88;38.57;95252.03;6167881;28;102768;-76
2022/09/22 05:02:14;;;;;;;5.40;4.90;;;;;;;20.91;38.24;95258.66;6157573;28;104133;-76
2022/09/22 05:05:18;;;;;;;5.63;4.57;;;;;;;20.91;38.34;95256.78;6167560;28;103014;-76
2022/09/22 05:08:22;;;;;;;5.33;4.30;;;;;;;20.91;38.41;95261.31;6166579;28;107281;-76
2022/09/22 05:11:25;;;;;;;5.00;4.70;;;;;;;20.88;38.70;95248.59;6164585;28;105015;-75
2022/09/22 05:14:29;;;;;;;5.43;4.63;;;;;;;20.86;38.68;95248.91;6165014;28;103270;-75
2022/09/22 05:17:34;;;;;;;7.73;5.40;;;;;;;20.79;37.83;95253.78;6167602;28;102897;-76
2022/09/22 05:20:38;;;;;;;5.77;5.27;;;;;;;20.70;37.67;95260.88;6167154;28;103358;-76
2022/09/22 05:23:43;;;;;;;5.67;5.30;;;;;;;20.61;37.96;95258.06;6160877;28;104121;-75
2022/09/22 05:26:47;;;;;;;6.40;5.57;;;;;;;20.63;37.75;95260.44;6166911;28;104183;-75
2022/09/22 05:29:50;;;;;;;8.63;5.47;;;;;;;20.63;37.85;95255.13;6166686;28;103791;-76
2022/09/22 05:32:53;;;;;;;7.70;5.63;;;;;;;20.64;38.01;95251.38;6167105;28;103319;-78
2022/09/22 05:35:57;;;;;;;5.63;5.23;;;;;;;20.66;37.69;95256.41;6160562;28;103912;-76
2022/09/22 05:39:02;;;;;;;6.63;6.00;;;;;;;20.63;37.39;95255.13;6166373;28;103892;-75
2022/09/22 05:42:05;;;;;;;5.63;5.13;;;;;;;20.60;37.46;95250.38;6165182;28;104449;-77
2022/09/22 05:45:13;;;;;;;6.20;5.70;;;;;;;20.54;37.60;95260.31;6165184;28;107056;-78
2022/09/22 05:48:17;;;;;;;6.40;6.00;;;;;;;20.51;37.66;95258.25;6162243;28;103294;-76
2022/09/22 05:51:20;;;;;;;7.93;5.53;;;;;;;20.54;38.05;95256.88;6165768;28;103090;-76
2022/09/22 05:54:25;;;;;;;6.23;5.73;;;;;;;20.60;38.15;95259.16;6165567;28;103109;-76
2022/09/22 05:57:30;;;;;;;5.90;5.40;;;;;;;20.76;38.22;95259.69;6160838;28;103995;-75
2022/09/22 06:00:33;;;;;;;6.37;5.87;;;;;;;20.82;38.32;95266.50;6165518;28;103308;-76
2022/09/22 06:03:37;;;;;;;6.23;5.57;;;;;;;20.92;38.60;95254.91;6166301;28;103419;-76
2022/09/22 06:06:40;;;;;;;6.47;5.67;;;;;;;21.03;38.22;95258.19;6166215;28;103128;-75
2022/09/22 06:09:45;;;;;;;5.70;5.10;;;;;;;21.00;38.13;95264.06;6160899;28;103412;-78
2022/09/22 06:12:49;;;;;;;5.60;5.10;;;;;;;21.02;38.32;95256.59;6152860;28;106157;-76
2022/09/22 06:15:52;;;;;;;6.10;4.60;;;;;;;21.05;38.25;95264.03;6165664;28;103214;-77
2022/09/22 06:18:55;;;;;;;5.90;5.40;;;;;;;21.08;38.17;95264.22;6165623;28;102971;-75
2022/09/22 06:22:00;;;;;;;5.20;4.80;;;;;;;21.08;38.08;95264.22;6159461;28;104049;-77
2022/09/22 06:25:08;;;;;;;5.70;5.13;;;;;;;21.21;37.90;95270.66;6165111;28;104086;-75
2022/09/22 06:28:13;;;;;;;5.30;4.80;;;;;;;21.23;38.04;95267.69;6165429;28;104088;-75
2022/09/22 06:31:16;;;;;;;5.90;5.13;;;;;;;21.30;37.39;95263.56;6159821;28;103513;-75
2022/09/22 06:34:19;;;;;;;6.00;4.87;;;;;;;21.39;37.39;95267.13;6165453;28;103632;-75
2022/09/22 06:37:23;;;;;;;7.40;5.00;;;;;;;21.52;37.42;95266.34;6165614;28;104004;-75
2022/09/22 06:40:27;;;;;;;5.20;4.70;;;;;;;21.48;37.75;95265.34;6165817;28;104117;-75
2022/09/22 06:43:36;;;;;;;4.50;4.13;;;;;;;21.59;37.57;95265.16;6159096;28;105970;-76
2022/09/22 06:46:40;;;;;;;4.90;4.60;;;;;;;21.69;37.17;95263.09;6165576;28;103473;-76
2022/09/22 06:49:45;;;;;;;5.07;4.57;;;;;;;21.74;37.39;95265.63;6165047;28;102674;-76
2022/09/22 06:52:50;;;;;;;4.63;4.23;;;;;;;21.77;36.94;95259.69;6164862;28;103526;-75
2022/09/22 06:55:57;;;;;;;5.30;4.60;;;;;;;21.79;37.42;95259.41;6157993;28;107083;-75
2022/09/22 06:59:01;;;;;;;5.03;4.63;;;;;;;21.86;37.22;95265.16;6165182;28;103376;-75
2022/09/22 07:02:12;;;;;;;4.90;4.40;;;;;;;21.91;36.94;95270.38;6164934;28;105650;-77
2022/09/22 07:05:18;;;;;;;4.90;4.50;;;;;;;22.02;37.22;95261.09;6159866;28;102951;-77
2022/09/22 07:08:23;;;;;;;4.60;4.20;;;;;;;22.00;36.78;95249.91;6164562;28;104163;-76
2022/09/22 07:11:27;;;;;;;4.67;4.37;;;;;;;22.18;36.92;95263.41;6163810;28;102972;-76
2022/09/22 07:14:31;;;;;;;4.57;4.27;;;;;;;22.21;36.54;95266.28;6163777;28;104219;-75
2022/09/22 07:17:35;;;;;;;5.33;4.37;;;;;;;22.26;36.78;95260.03;6158641;28;103757;-76
2022/09/22 07:20:39;;;;;;;4.50;4.20;;;;;;;22.38;36.53;95258.41;6165181;28;106241;-76
2022/09/22 07:23:43;;;;;;;4.63;4.23;;;;;;;22.49;36.24;95264.28;6164879;28;103044;-76
2022/09/22 07:26:47;;;;;;;4.13;3.83;;;;;;;22.45;36.78;95249.97;6165193;28;106571;-76
2022/09/22 07:29:53;;;;;;;4.10;3.70;;;;;;;22.54;36.72;95258.84;6159220;28;103052;-76
2022/09/22 07:32:57;;;;;;;5.13;4.83;;;;;;;22.49;36.53;95256.28;6164298;28;105214;-76
2022/09/22 07:36:03;;;;;;;4.23;3.93;;;;;;;22.50;36.41;95247.19;6171530;28;103064;-76
2022/09/22 07:39:09;;;;;;;3.70;3.50;;;;;;;22.49;36.69;95256.28;6167077;28;103535;-75
2022/09/22 07:42:15;;;;;;;4.03;3.73;;;;;;;22.60;36.81;95264.88;6167892;28;104052;-76
2022/09/22 07:45:20;;;;;;;5.67;3.90;;;;;;;22.57;36.67;95254.81;6170360;28;104317;-76
2022/09/22 07:48:36;;;;;;;3.93;3.60;;;;;;;22.58;36.44;95254.50;6169668;28;106618;-75
2022/09/22 07:51:40;;;;;;;4.17;3.87;;;;;;;22.68;36.88;95267.63;6163981;28;104032;-77
2022/09/22 07:54:43;;;;;;;3.97;3.67;;;;;;;22.70;36.71;95267.31;6170342;28;103058;-78
2022/09/22 07:57:55;;;;;;;3.90;3.60;;;;;;;22.74;36.84;95265.59;6168893;28;103712;-77
2022/09/22 08:00:58;;;;;;;3.70;3.40;;;;;;;22.70;36.41;95254.75;6164177;28;103148;-77
2022/09/22 08:04:03;;;;;;;4.00;3.70;;;;;;;22.80;36.45;95267.03;6157385;28;103470;-78
2022/09/22 08:07:06;;;;;;;3.43;3.23;;;;;;;22.80;36.66;95263.59;6164441;28;104246;-77
2022/09/22 08:10:12;;;;;;;3.73;3.43;;;;;;;22.88;36.30;95265.53;6164103;28;104474;-77
2022/09/22 08:13:19;;;;;;;3.70;3.40;;;;;;;22.81;36.46;95249.16;6161088;28;104831;-79
2022/09/22 08:16:24;;;;;;;4.10;3.30;;;;;;;22.92;36.88;95253.16;6162177;28;106748;-77
2022/09/22 08:19:29;;;;;;;3.47;3.27;;;;;;;22.95;36.24;95257.88;6163740;28;103057;-77
2022/09/22 08:22:34;;;;;;;3.60;3.40;;;;;;;23.00;36.46;95255.06;6163272;28;103268;-78
2022/09/22 08:25:38;;;;;;;3.83;3.53;;;;;;;22.99;36.74;95256.94;6157720;28;105836;-77
2022/09/22 08:28:43;;;;;;;3.20;3.00;;;;;;;22.98;36.53;95251.91;6163651;28;103286;-77
2022/09/22 08:31:47;;;;;;;3.40;3.10;;;;;;;23.00;36.39;95241.72;6163299;28;103443;-76
2022/09/22 08:34:54;;;;;;;3.70;3.40;;;;;;;23.08;36.28;95246.31;6163696;28;106436;-76
2022/09/22 08:37:57;;;;;;;3.63;3.43;;;;;;;23.08;36.54;95234.88;6156473;28;103306;-77
2022/09/22 08:41:16;;;;;;;3.67;3.37;;;;;;;22.96;36.82;95235.44;6163178;28;103969;-76
2022/09/22 08:44:27;;;;;;;3.50;3.20;;;;;;;22.97;36.58;95234.34;6161572;28;103178;-76
2022/09/22 08:54:30;;;;;;;3.73;3.53;;;;;;;23.05;36.46;95236.28;6162377;28;103361;-76
2022/09/22 08:57:59;;;;;;;3.50;3.30;;;;;;;23.05;36.41;95236.28;6163614;28;103090;-75
2022/09/22 09:01:16;;;;;;;3.17;2.87;;;;;;;23.03;36.98;95230.47;6159632;28;103082;-78
2022/09/22 09:04:45;;;;;;;3.40;3.20;;;;;;;23.00;37.03;95229.16;6163204;28;103431;-76
2022/09/22 09:07:59;;;;;;;3.70;3.40;;;;;;;23.00;37.08;95231.84;6163000;28;103363;-78
2022/09/22 09:11:14;;;;;;;3.43;3.23;;;;;;;22.99;36.45;95238.25;6156884;28;104227;-76
2022/09/22 09:14:39;;;;;;;3.73;3.00;;;;;;;23.00;36.75;95228.38;6163400;28;103707;-76
2022/09/22 09:17:46;;;;;;;3.00;2.80;;;;;;;23.01;36.71;95230.72;6163405;28;103773;-76
2022/09/22 09:20:52;;;;;;;3.53;3.33;;;;;;;23.01;36.56;95233.41;6159014;28;103325;-76
2022/09/22 09:24:01;;;;;;;3.77;3.47;;;;;;;22.98;36.63;95230.56;6160744;28;103386;-76
2022/09/22 09:27:26;;;;;;;3.00;2.80;;;;;;;23.01;36.91;95230.72;6162250;28;103009;-77
2022/09/22 09:30:38;;;;;;;3.23;3.03;;;;;;;23.05;36.88;95220.25;6162995;28;106303;-77
2022/09/22 09:33:57;;;;;;;3.03;2.83;;;;;;;23.04;36.60;95212.56;6157895;28;103156;-76
2022/09/22 09:37:08;;;;;;;3.10;2.90;;;;;;;23.05;37.00;95220.25;6167283;28;103686;-76
2022/09/22 09:40:16;;;;;;;3.17;2.87;;;;;;;23.03;36.33;95214.44;6167124;28;105154;-76
2022/09/22 09:43:22;;;;;;;3.00;2.80;;;;;;;22.92;36.82;95218.47;6165707;28;103023;-78
2022/09/22 09:46:38;;;;;;;2.70;2.50;;;;;;;22.86;36.83;95217.03;6163449;28;103669;-78
2022/09/22 09:49:43;;;;;;;2.90;2.70;;;;;;;22.84;37.22;95219.97;6166513;28;103817;-77
2022/09/22 09:52:46;;;;;;;3.10;2.90;;;;;;;22.84;37.08;95209.28;6165619;28;103311;-75
2022/09/22 09:55:49;;;;;;;3.50;3.30;;;;;;;22.88;36.66;95212.16;6160322;28;105270;-76
2022/09/22 10:02:21;;;;;;;2.73;2.57;;;;;;;22.88;37.17;95204.94;6166296;28;103537;-76
2022/09/22 10:05:26;;;;;;;3.07;2.87;;;;;;;22.87;36.90;95210.59;6166659;28;103394;-76
2022/09/22 10:08:35;;;;;;;2.90;2.70;;;;;;;22.86;37.02;95195.69;6160217;28;104476;-76
2022/09/22 10:11:38;;;;;;;3.20;3.00;;;;;;;22.86;37.39;95193.00;6166179;28;102977;-76
2022/09/22 10:14:50;;;;;;;2.87;2.67;;;;;;;22.86;36.73;95188.47;6166309;28;103560;-76
2022/09/22 10:17:53;;;;;;;3.30;3.10;;;;;;;22.89;37.03;95192.41;6162397;28;107245;-76
2022/09/22 10:21:05;;;;;;;2.80;2.60;;;;;;;22.82;36.69;95178.69;6164950;28;104045;-77
2022/09/22 10:24:24;;;;;;;3.20;3.00;;;;;;;22.81;36.94;95183.22;6165591;28;103657;-76
2022/09/22 10:27:30;;;;;;;2.83;2.63;;;;;;;22.72;37.35;95173.63;6165954;28;103595;-76
2022/09/22 10:30:36;;;;;;;2.80;2.60;;;;;;;22.80;37.05;95175.53;6158826;28;103523;-76
2022/09/22 10:33:54;;;;;;;3.10;2.90;;;;;;;22.82;36.80;95168.00;6165600;28;103603;-77
2022/09/22 10:37:00;;;;;;;2.63;2.43;;;;;;;22.80;37.04;95167.53;6165574;28;106020;-76
2022/09/22 10:40:16;;;;;;;3.50;3.30;;;;;;;22.76;37.30;95171.91;6159490;28;103305;-77
2022/09/22 10:43:35;;;;;;;3.10;2.90;;;;;;;22.68;37.33;95174.25;6163137;28;103556;-76
2022/09/22 10:47:07;;;;;;;3.30;3.10;;;;;;;22.60;37.50;95153.63;6167133;28;103019;-77
2022/09/22 10:50:49;;;;;;;2.80;2.60;;;;;;;22.59;37.18;95165.41;6156961;28;105257;-76
2022/09/22 10:54:17;;;;;;;3.03;2.83;;;;;;;22.57;37.54;95166.81;6151299;28;103547;-76
2022/09/22 10:57:31;;;;;;;3.10;2.90;;;;;;;22.59;37.20;95168.06;6166212;28;103145;-76
2022/09/22 11:00:36;;;;;;;3.10;2.90;;;;;;;22.54;37.64;95159.38;6165735;28;103889;-77
2022/09/22 11:04:01;;;;;;;3.20;3.00;;;;;;;22.52;37.78;95157.03;6161431;28;103765;-76
2022/09/22 11:14:31;;;;;;;3.10;2.50;;;;;;;22.49;37.67;95133.59;6162588;28;103619;-78
2022/09/22 11:17:52;;;;;;;3.20;3.00;;;;;;;22.49;37.63;95138.94;6161946;28;104017;-76
2022/09/22 11:21:04;;;;;;;3.27;3.07;;;;;;;22.47;37.31;95135.00;6165481;28;104745;-78
2022/09/22 11:24:36;;;;;;;3.40;3.20;;;;;;;22.37;37.55;95120.06;6165393;28;105259;-77
2022/09/22 11:27:56;;;;;;;2.50;2.40;;;;;;;22.42;37.32;95134.06;6158441;28;105204;-77
2022/09/22 11:30:59;;;;;;;3.00;2.80;;;;;;;22.42;37.29;95127.94;6163886;28;103544;-77
2022/09/22 11:34:23;;;;;;;3.27;3.07;;;;;;;22.39;37.83;95137.34;6165051;28;107010;-76
2022/09/22 11:37:49;;;;;;;3.40;3.20;;;;;;;22.37;37.88;95128.06;6158902;28;103018;-77
2022/09/22 11:41:14;;;;;;;2.90;2.70;;;;;;;22.38;37.74;95132.31;6164599;28;103177;-77
2022/09/22 11:44:38;;;;;;;2.60;2.40;;;;;;;22.36;37.84;95126.50;6165403;28;103367;-76
2022/09/22 11:47:56;;;;;;;3.13;2.93;;;;;;;22.33;37.57;95114.53;6164845;28;105172;-75
2022/09/22 11:51:14;;;;;;;3.07;2.87;;;;;;;22.31;37.41;95116.72;6160160;28;103641;-76
2022/09/22 11:54:31;;;;;;;3.10;2.87;;;;;;;22.31;37.85;95113.28;6165028;28;104741;-76
2022/09/22 11:57:38;;;;;;;3.30;3.10;;;;;;;22.30;37.53;95114.38;6163810;28;103373;-75
2022/09/22 12:00:49;;;;;;;3.00;2.80;;;;;;;22.30;37.86;95109.03;6158570;28;103321;-76
2022/09/22 12:04:00;;;;;;;3.10;2.90;;;;;;;22.31;37.46;95115.94;6163705;28;104427;-76
2022/09/22 12:07:13;;;;;;;2.90;2.70;;;;;;;22.28;38.07;95113.88;6164054;28;107081;-76
2022/09/22 12:10:21;;;;;;;3.03;2.83;;;;;;;22.26;37.60;95124.88;6164429;28;103436;-76
2022/09/22 12:13:27;;;;;;;2.83;2.63;;;;;;;22.26;37.50;95129.41;6156832;28;103019;-76
2022/09/22 12:16:40;;;;;;;2.80;2.60;;;;;;;22.24;37.71;95127.03;6163869;28;103381;-76
2022/09/22 12:19:55;;;;;;;2.80;2.60;;;;;;;22.22;38.08;95120.44;6164347;28;103639;-76
2022/09/22 12:23:16;;;;;;;3.23;3.03;;;;;;;22.24;38.02;95120.94;6158438;28;103497;-76
2022/09/22 12:26:27;;;;;;;2.97;2.77;;;;;;;22.20;38.19;95117.31;6164521;28;103725;-76
2022/09/22 12:29:31;;;;;;;2.67;2.47;;;;;;;22.21;37.62;95113.53;6163669;28;105312;-75
2022/09/22 12:32:38;;;;;;;2.80;2.60;;;;;;;22.18;38.01;95109.63;6163573;28;103071;-77
2022/09/22 12:35:42;;;;;;;2.90;2.70;;;;;;;22.18;37.78;95109.63;6156737;28;104542;-76
2022/09/22 12:38:46;;;;;;;2.57;2.37;;;;;;;22.18;38.22;95106.94;6164223;28;107250;-76
2022/09/22 12:41:57;;;;;;;2.57;2.43;;;;;;;22.16;37.99;95103.78;6163501;28;103658;-76
2022/09/22 12:45:08;;;;;;;3.00;2.80;;;;;;;22.17;37.97;95107.22;6160927;28;104064;-76
2022/09/22 12:48:17;;;;;;;2.73;2.57;;;;;;;22.12;37.93;95102.81;6162914;28;103409;-77
2022/09/22 12:51:31;;;;;;;3.00;2.80;;;;;;;22.12;37.63;95102.81;6162978;28;102654;-75
2022/09/22 12:54:38;;;;;;;2.23;2.13;;;;;;;22.10;38.34;95105.00;6163493;28;104088;-75
2022/09/22 12:57:45;;;;;;;2.80;2.60;;;;;;;22.09;37.70;95104.22;6157317;28;105686;-76
2022/09/22 13:00:50;;;;;;;2.97;2.77;;;;;;;22.08;37.69;95101.84;6163471;28;103039;-77
2022/09/22 13:04:11;;;;;;;2.90;2.70;;;;;;;22.06;37.87;95118.16;6162992;28;104179;-76
2022/09/22 13:07:36;;;;;;;2.73;2.53;;;;;;;22.06;38.00;95118.16;6160733;28;107071;-78
2022/09/22 13:10:56;;;;;;;2.37;2.27;;;;;;;22.06;38.07;95115.50;6165390;28;104196;-77
2022/09/22 13:14:00;;;;;;;2.70;2.50;;;;;;;22.05;38.31;95124.56;6167829;28;103965;-76
2022/09/22 13:17:33;;;;;;;2.67;2.50;;;;;;;22.03;37.98;95121.44;6167188;28;103107;-75
2022/09/22 13:20:37;;;;;;;2.47;2.37;;;;;;;22.04;38.36;95117.69;6161395;28;103614;-76
2022/09/22 13:23:57;;;;;;;2.10;2.00;;;;;;;22.05;37.90;95108.59;6167518;28;106335;-76
2022/09/22 13:27:04;;;;;;;2.27;2.17;;;;;;;22.03;38.28;95099.31;6167412;28;103695;-76
2022/09/22 13:30:14;;;;;;;2.57;2.37;;;;;;;22.01;37.83;95096.97;6164904;28;104144;-76
2022/09/22 13:33:23;;;;;;;2.80;2.60;;;;;;;22.01;37.86;95096.16;6164445;28;105298;-76
2022/09/22 13:36:27;;;;;;;2.80;2.60;;;;;;;22.01;37.72;95091.63;6167549;28;104030;-76
2022/09/22 13:39:34;;;;;;;2.27;2.17;;;;;;;22.00;38.26;95092.69;6166304;28;103506;-76
2022/09/22 13:42:38;;;;;;;2.70;2.50;;;;;;;21.95;38.16;95098.16;6160812;28;104182;-77
2022/09/22 13:45:45;;;;;;;2.40;2.30;;;;;;;21.98;38.46;95102.09;6167365;28;106486;-76
2022/09/22 13:48:50;;;;;;;2.23;2.13;;;;;;;21.97;37.96;95100.53;6165996;28;103561;-76
2022/09/22 13:51:58;;;;;;;2.23;2.13;;;;;;;21.96;38.11;95097.06;6166201;28;103253;-77
2022/09/22 13:55:09;;;;;;;2.23;2.13;;;;;;;21.91;38.08;95091.88;6159446;28;103121;-77
2022/09/22 13:58:15;;;;;;;2.63;2.40;;;;;;;21.95;38.47;95097.38;6166999;28;103036;-77
2022/09/22 14:01:20;;;;;;;2.20;2.10;;;;;;;21.93;38.28;95094.22;6166907;28;105384;-77
2022/09/22 14:04:25;;;;;;;2.50;2.40;;;;;;;21.95;38.42;95100.03;6163812;28;103001;-76
2022/09/22 14:07:32;;;;;;;2.47;2.37;;;;;;;21.93;38.54;95100.34;6163766;28;103794;-76
2022/09/22 14:10:48;;;;;;;2.50;2.40;;;;;;;21.90;38.17;95097.50;6165743;28;105029;-77
2022/09/22 14:13:59;;;;;;;2.60;2.40;;;;;;;21.91;38.47;95101.75;6166078;28;103112;-77
2022/09/22 14:17:05;;;;;;;2.53;2.43;;;;;;;21.92;38.28;95112.09;6159707;28;103131;-77
2022/09/22 14:20:09;;;;;;;2.47;2.30;;;;;;;21.92;38.37;95108.63;6166176;28;103591;-77
2022/09/22 14:23:26;;;;;;;2.70;2.50;;;;;;;21.94;37.82;95107.25;6166362;28;103345;-77
2022/09/22 14:26:34;;;;;;;2.63;2.43;;;;;;;21.94;38.31;95117.13;6166444;28;106121;-77
2022/09/22 14:29:39;;;;;;;2.60;2.40;;;;;;;21.91;38.15;95110.53;6160634;28;107662;-77
2022/09/22 14:32:49;;;;;;;2.27;2.10;;;;;;;21.91;38.33;95110.53;6165603;28;104698;-78
2022/09/22 14:36:00;;;;;;;2.47;2.37;;;;;;;21.88;38.26;95113.78;6166229;28;102866;-78
2022/09/22 14:39:05;;;;;;;2.70;2.53;;;;;;;21.89;38.59;95110.03;6160152;28;104417;-77
2022/09/22 14:42:20;;;;;;;2.70;2.50;;;;;;;21.93;38.07;95113.66;6164568;28;103430;-77
2022/09/22 14:45:24;;;;;;;2.63;2.47;;;;;;;21.93;37.96;95119.00;6165439;28;103401;-78
2022/09/22 14:48:29;;;;;;;2.30;2.20;;;;;;;21.91;38.43;95123.84;6165775;28;104295;-77
2022/09/22 14:51:33;;;;;;;2.60;2.40;;;;;;;21.92;37.87;95113.97;6158651;28;103001;-77